Norton, KS

6:42 PM CDT on September 23, 2014 (GMT -0500)
Kelly | Change Station
CLOSE
Current Station
Airport
Location: Lexington,
Elevation: 2411 ft
Nearby Weather Stations

Elev 2411 ft 40.79 °N, 99.78 °W | Updated 7 minutes ago

Clear
Clear
76 °F
Feels Like 76 °F
N
14
Wind Variable Wind from SSE
Gusts 17 mph

Today
High -- | Low -- °F
--% Chance of Precip.
Yesterday
High -- | Low -- °F
Precip. -- in
7:28 AM 7:34 PM
Waning Crescent, 0% visible
Pressure 29.94 in
Visibility 10.0 miles
Clouds Clear
Dew Point 62 °F
Humidity 62%
Rainfall 0.33 in
Snow Depth Not available.
UV 1 out of 12
Pollen 2.60 out of 12
Air Quality Not available.
Flu Activity Not available.
METAR KLXN 232335Z AUTO 15012G15KT 10SM CLR 24/17 A2994 RMK AO2 T02440166

More Conditions Fewer Conditions

Pressure 29.94 in
Visibility 10.0 miles
Clouds Clear
Dew Point 62 °F
Humidity 62%
Rainfall 0.33 in
Snow Depth Not available.
UV 1 out of 12
Pollen 2.60 out of 12
Air Quality Not available.
Flu Activity Not available.
METAR KLXN 232335Z AUTO 15012G15KT 10SM CLR 24/17 A2994 RMK AO2 T02440166

More Conditions Fewer Conditions

10-Day Weather Forecast

Almanac

Astronomy

Sep. 23, 2014 Rise Set
Actual Time 7:28 AM CDT 7:34 PM CDT
Civil Twilight 7:01 AM CDT 8:01 PM CDT
Nautical Twilight 6:29 AM CDT 8:33 PM CDT
Astronomical Twilight 5:57 AM CDT 9:05 PM CDT
Moon 6:54 AM CDT 7:14 PM CDT
Length of Visible Light 13h 00m
Length of Day
12h 06m
Tomorrow will be 2m 36s shorter.
Waning Crescent, 0% of the Moon is Illuminated
Today
Waning Crescent
Sep 24
New
Oct 1
First Quarter
Oct 8
Full
Oct 15
Last Quarter

Today's Extremes

State Highs State Lows

Community

WunderPhotos

Upload Photos

1,755,821 photos uploaded!

WunderBlogs® & News

Nearby

Snow Depth

Station Depth Elevation
No new snow has been reported.

Earthquake Activity

City Distance Mag. Time & Date
No recent earthquake activity has been reported nearby.
Minimum magnitude displayed is 2.5.

Coastal Water Temperatures

Place Temperature
No Stations Reporting

Nearby Weather Stations